sensor_id;sensor_type;location;lat;lon;timestamp;P1;durP1;ratioP1;P2;durP2;ratioP2
25637;SDS011;13496;51.040;13.680;2023-07-02T00:04:42;2.80;;;1.80;;
25637;SDS011;13496;51.040;13.680;2023-07-02T00:09:46;2.35;;;1.80;;
25637;SDS011;13496;51.040;13.680;2023-07-02T00:14:48;2.33;;;1.67;;
25637;SDS011;13496;51.040;13.680;2023-07-02T00:19:50;2.55;;;1.90;;
25637;SDS011;13496;51.040;13.680;2023-07-02T00:24:52;2.33;;;1.52;;
25637;SDS011;13496;51.040;13.680;2023-07-02T00:29:57;2.13;;;1.52;;
25637;SDS011;13496;51.040;13.680;2023-07-02T00:34:58;1.75;;;1.42;;
25637;SDS011;13496;51.040;13.680;2023-07-02T00:40:00;1.70;;;1.60;;
25637;SDS011;13496;51.040;13.680;2023-07-02T00:45:04;1.60;;;1.50;;
25637;SDS011;13496;51.040;13.680;2023-07-02T00:50:07;2.05;;;1.58;;
25637;SDS011;13496;51.040;13.680;2023-07-02T00:55:10;1.92;;;1.70;;
25637;SDS011;13496;51.040;13.680;2023-07-02T01:00:12;1.30;;;1.20;;
25637;SDS011;13496;51.040;13.680;2023-07-02T01:05:15;1.55;;;1.45;;
25637;SDS011;13496;51.040;13.680;2023-07-02T01:10:17;1.40;;;1.20;;
25637;SDS011;13496;51.040;13.680;2023-07-02T01:15:18;1.42;;;1.33;;
25637;SDS011;13496;51.040;13.680;2023-07-02T01:20:20;1.63;;;1.42;;
25637;SDS011;13496;51.040;13.680;2023-07-02T01:25:22;2.10;;;1.30;;
25637;SDS011;13496;51.040;13.680;2023-07-02T01:30:25;1.58;;;1.48;;
25637;SDS011;13496;51.040;13.680;2023-07-02T01:35:27;1.33;;;1.23;;
25637;SDS011;13496;51.040;13.680;2023-07-02T01:40:29;1.13;;;1.02;;
25637;SDS011;13496;51.040;13.680;2023-07-02T01:45:31;1.05;;;1.00;;
25637;SDS011;13496;51.040;13.680;2023-07-02T01:50:33;1.40;;;1.30;;
25637;SDS011;13496;51.040;13.680;2023-07-02T01:55:35;1.38;;;1.27;;
25637;SDS011;13496;51.040;13.680;2023-07-02T02:00:36;1.38;;;1.27;;
25637;SDS011;13496;51.040;13.680;2023-07-02T02:05:38;1.35;;;1.25;;
25637;SDS011;13496;51.040;13.680;2023-07-02T02:10:40;1.70;;;1.45;;
25637;SDS011;13496;51.040;13.680;2023-07-02T02:15:42;1.30;;;1.20;;
25637;SDS011;13496;51.040;13.680;2023-07-02T02:20:43;2.40;;;1.27;;
25637;SDS011;13496;51.040;13.680;2023-07-02T02:25:45;1.77;;;1.35;;
25637;SDS011;13496;51.040;13.680;2023-07-02T02:30:47;1.30;;;1.20;;
25637;SDS011;13496;51.040;13.680;2023-07-02T02:35:49;2.40;;;1.30;;
25637;SDS011;13496;51.040;13.680;2023-07-02T02:40:51;1.20;;;1.10;;
25637;SDS011;13496;51.040;13.680;2023-07-02T02:45:55;1.27;;;1.17;;
25637;SDS011;13496;51.040;13.680;2023-07-02T02:50:57;1.10;;;1.10;;
25637;SDS011;13496;51.040;13.680;2023-07-02T02:55:59;1.40;;;1.30;;
25637;SDS011;13496;51.040;13.680;2023-07-02T03:01:00;1.38;;;1.27;;
25637;SDS011;13496;51.040;13.680;2023-07-02T03:06:02;1.20;;;1.10;;
25637;SDS011;13496;51.040;13.680;2023-07-02T03:11:04;1.90;;;1.50;;
25637;SDS011;13496;51.040;13.680;2023-07-02T03:16:05;1.48;;;1.38;;
25637;SDS011;13496;51.040;13.680;2023-07-02T03:21:08;1.60;;;1.50;;
25637;SDS011;13496;51.040;13.680;2023-07-02T03:26:10;1.20;;;1.10;;
25637;SDS011;13496;51.040;13.680;2023-07-02T03:31:11;1.45;;;1.10;;
25637;SDS011;13496;51.040;13.680;2023-07-02T03:36:13;1.40;;;1.30;;
25637;SDS011;13496;51.040;13.680;2023-07-02T03:41:15;1.75;;;1.15;;
25637;SDS011;13496;51.040;13.680;2023-07-02T03:46:16;2.17;;;1.30;;
25637;SDS011;13496;51.040;13.680;2023-07-02T03:51:18;1.40;;;1.30;;
25637;SDS011;13496;51.040;13.680;2023-07-02T03:56:20;1.75;;;1.65;;
25637;SDS011;13496;51.040;13.680;2023-07-02T04:01:21;2.45;;;1.50;;
25637;SDS011;13496;51.040;13.680;2023-07-02T04:06:23;1.67;;;1.25;;
25637;SDS011;13496;51.040;13.680;2023-07-02T04:11:25;2.42;;;1.40;;
25637;SDS011;13496;51.040;13.680;2023-07-02T04:16:27;1.80;;;1.15;;
25637;SDS011;13496;51.040;13.680;2023-07-02T04:21:28;1.40;;;1.30;;
25637;SDS011;13496;51.040;13.680;2023-07-02T04:26:30;1.30;;;1.20;;
25637;SDS011;13496;51.040;13.680;2023-07-02T04:31:32;1.50;;;1.38;;
25637;SDS011;13496;51.040;13.680;2023-07-02T04:36:33;2.05;;;1.50;;
25637;SDS011;13496;51.040;13.680;2023-07-02T04:41:35;1.58;;;1.48;;
25637;SDS011;13496;51.040;13.680;2023-07-02T04:46:37;1.88;;;1.45;;
25637;SDS011;13496;51.040;13.680;2023-07-02T04:51:39;1.90;;;1.45;;
25637;SDS011;13496;51.040;13.680;2023-07-02T04:56:40;1.50;;;1.40;;
25637;SDS011;13496;51.040;13.680;2023-07-02T05:01:42;2.40;;;1.50;;
25637;SDS011;13496;51.040;13.680;2023-07-02T05:06:44;1.75;;;1.60;;
25637;SDS011;13496;51.040;13.680;2023-07-02T05:11:45;1.75;;;1.27;;
25637;SDS011;13496;51.040;13.680;2023-07-02T05:16:47;1.50;;;1.40;;
25637;SDS011;13496;51.040;13.680;2023-07-02T05:21:49;4.15;;;1.80;;
25637;SDS011;13496;51.040;13.680;2023-07-02T05:26:50;2.83;;;1.23;;
25637;SDS011;13496;51.040;13.680;2023-07-02T05:31:52;1.60;;;1.50;;
25637;SDS011;13496;51.040;13.680;2023-07-02T05:36:54;3.58;;;1.30;;
25637;SDS011;13496;51.040;13.680;2023-07-02T05:41:56;1.90;;;1.42;;
25637;SDS011;13496;51.040;13.680;2023-07-02T05:46:58;3.80;;;1.45;;
25637;SDS011;13496;51.040;13.680;2023-07-02T05:51:59;1.88;;;1.42;;
25637;SDS011;13496;51.040;13.680;2023-07-02T05:57:01;2.53;;;1.80;;
25637;SDS011;13496;51.040;13.680;2023-07-02T06:02:03;3.67;;;2.03;;
25637;SDS011;13496;51.040;13.680;2023-07-02T06:07:04;5.07;;;1.80;;
25637;SDS011;13496;51.040;13.680;2023-07-02T06:12:06;4.80;;;2.00;;
25637;SDS011;13496;51.040;13.680;2023-07-02T06:17:08;3.35;;;1.92;;
25637;SDS011;13496;51.040;13.680;2023-07-02T06:22:10;3.33;;;1.63;;
25637;SDS011;13496;51.040;13.680;2023-07-02T06:27:12;2.67;;;1.70;;
25637;SDS011;13496;51.040;13.680;2023-07-02T06:32:14;5.15;;;1.85;;
25637;SDS011;13496;51.040;13.680;2023-07-02T06:37:15;4.65;;;1.90;;
25637;SDS011;13496;51.040;13.680;2023-07-02T06:42:17;2.35;;;1.92;;
25637;SDS011;13496;51.040;13.680;2023-07-02T06:47:20;4.07;;;1.98;;
25637;SDS011;13496;51.040;13.680;2023-07-02T06:52:21;3.30;;;1.63;;
25637;SDS011;13496;51.040;13.680;2023-07-02T06:57:23;1.85;;;1.75;;
25637;SDS011;13496;51.040;13.680;2023-07-02T07:02:25;3.75;;;1.60;;
25637;SDS011;13496;51.040;13.680;2023-07-02T07:07:27;1.73;;;1.63;;
25637;SDS011;13496;51.040;13.680;2023-07-02T07:12:29;2.50;;;1.70;;
25637;SDS011;13496;51.040;13.680;2023-07-02T07:17:31;2.13;;;1.80;;
25637;SDS011;13496;51.040;13.680;2023-07-02T07:22:33;2.08;;;1.70;;
25637;SDS011;13496;51.040;13.680;2023-07-02T07:27:35;3.42;;;2.15;;
25637;SDS011;13496;51.040;13.680;2023-07-02T07:32:36;2.15;;;1.92;;
25637;SDS011;13496;51.040;13.680;2023-07-02T07:37:38;4.68;;;2.58;;
25637;SDS011;13496;51.040;13.680;2023-07-02T07:42:41;2.63;;;2.40;;
25637;SDS011;13496;51.040;13.680;2023-07-02T07:47:44;4.22;;;2.40;;
25637;SDS011;13496;51.040;13.680;2023-07-02T07:52:47;6.63;;;2.80;;
25637;SDS011;13496;51.040;13.680;2023-07-02T07:57:49;11.13;;;3.25;;
25637;SDS011;13496;51.040;13.680;2023-07-02T08:02:51;9.13;;;2.88;;
25637;SDS011;13496;51.040;13.680;2023-07-02T08:07:53;8.48;;;2.70;;
25637;SDS011;13496;51.040;13.680;2023-07-02T08:12:55;4.63;;;2.75;;
25637;SDS011;13496;51.040;13.680;2023-07-02T08:17:57;3.33;;;2.40;;
25637;SDS011;13496;51.040;13.680;2023-07-02T08:23:00;6.00;;;2.75;;
25637;SDS011;13496;51.040;13.680;2023-07-02T08:28:01;5.53;;;2.85;;
25637;SDS011;13496;51.040;13.680;2023-07-02T08:33:03;6.82;;;2.70;;
25637;SDS011;13496;51.040;13.680;2023-07-02T08:38:05;4.30;;;2.35;;
25637;SDS011;13496;51.040;13.680;2023-07-02T08:43:07;7.28;;;2.70;;
25637;SDS011;13496;51.040;13.680;2023-07-02T08:48:12;6.43;;;2.63;;
25637;SDS011;13496;51.040;13.680;2023-07-02T08:53:14;5.63;;;2.40;;
25637;SDS011;13496;51.040;13.680;2023-07-02T08:58:16;3.97;;;2.40;;
25637;SDS011;13496;51.040;13.680;2023-07-02T09:03:18;3.95;;;2.50;;
25637;SDS011;13496;51.040;13.680;2023-07-02T09:08:26;3.17;;;1.98;;
25637;SDS011;13496;51.040;13.680;2023-07-02T09:13:28;3.83;;;2.30;;
25637;SDS011;13496;51.040;13.680;2023-07-02T09:18:30;3.90;;;2.42;;
25637;SDS011;13496;51.040;13.680;2023-07-02T09:23:35;2.10;;;1.90;;
25637;SDS011;13496;51.040;13.680;2023-07-02T09:28:37;8.60;;;2.40;;
25637;SDS011;13496;51.040;13.680;2023-07-02T09:33:38;4.53;;;2.28;;
25637;SDS011;13496;51.040;13.680;2023-07-02T09:38:40;5.32;;;2.50;;
25637;SDS011;13496;51.040;13.680;2023-07-02T09:43:42;3.67;;;1.92;;
25637;SDS011;13496;51.040;13.680;2023-07-02T09:48:44;2.30;;;2.10;;
25637;SDS011;13496;51.040;13.680;2023-07-02T09:53:46;2.08;;;1.90;;
25637;SDS011;13496;51.040;13.680;2023-07-02T09:58:48;4.40;;;1.90;;
25637;SDS011;13496;51.040;13.680;2023-07-02T10:03:50;4.45;;;2.15;;
25637;SDS011;13496;51.040;13.680;2023-07-02T10:08:53;2.80;;;2.03;;
25637;SDS011;13496;51.040;13.680;2023-07-02T10:13:59;6.85;;;3.00;;
25637;SDS011;13496;51.040;13.680;2023-07-02T10:19:10;6.55;;;2.42;;
25637;SDS011;13496;51.040;13.680;2023-07-02T10:24:13;2.28;;;2.00;;
25637;SDS011;13496;51.040;13.680;2023-07-02T10:29:18;4.85;;;2.42;;
25637;SDS011;13496;51.040;13.680;2023-07-02T10:34:30;3.80;;;2.38;;
25637;SDS011;13496;51.040;13.680;2023-07-02T10:39:38;2.35;;;2.13;;
25637;SDS011;13496;51.040;13.680;2023-07-02T10:44:49;2.50;;;2.30;;
25637;SDS011;13496;51.040;13.680;2023-07-02T10:49:52;2.55;;;2.10;;
25637;SDS011;13496;51.040;13.680;2023-07-02T10:54:54;5.32;;;2.38;;
25637;SDS011;13496;51.040;13.680;2023-07-02T11:00:03;5.07;;;2.28;;
25637;SDS011;13496;51.040;13.680;2023-07-02T11:05:06;7.22;;;2.63;;
25637;SDS011;13496;51.040;13.680;2023-07-02T11:10:19;2.92;;;2.08;;
25637;SDS011;13496;51.040;13.680;2023-07-02T11:15:21;14.02;;;3.42;;
25637;SDS011;13496;51.040;13.680;2023-07-02T11:20:23;7.72;;;2.55;;
25637;SDS011;13496;51.040;13.680;2023-07-02T11:25:35;6.15;;;2.00;;
25637;SDS011;13496;51.040;13.680;2023-07-02T11:30:44;5.80;;;2.17;;
25637;SDS011;13496;51.040;13.680;2023-07-02T11:35:46;2.65;;;1.77;;
25637;SDS011;13496;51.040;13.680;2023-07-02T11:40:48;4.13;;;2.13;;
25637;SDS011;13496;51.040;13.680;2023-07-02T11:45:50;3.03;;;1.65;;
25637;SDS011;13496;51.040;13.680;2023-07-02T11:50:52;2.80;;;1.90;;
25637;SDS011;13496;51.040;13.680;2023-07-02T11:55:53;2.20;;;2.00;;
25637;SDS011;13496;51.040;13.680;2023-07-02T12:00:55;2.65;;;2.00;;
25637;SDS011;13496;51.040;13.680;2023-07-02T12:05:57;2.20;;;1.90;;
25637;SDS011;13496;51.040;13.680;2023-07-02T12:10:58;2.78;;;2.25;;
25637;SDS011;13496;51.040;13.680;2023-07-02T12:16:00;2.65;;;2.05;;
25637;SDS011;13496;51.040;13.680;2023-07-02T12:21:02;2.55;;;2.30;;
25637;SDS011;13496;51.040;13.680;2023-07-02T12:26:04;2.08;;;1.85;;
25637;SDS011;13496;51.040;13.680;2023-07-02T12:31:06;3.00;;;2.17;;
25637;SDS011;13496;51.040;13.680;2023-07-02T12:36:07;2.80;;;2.17;;
25637;SDS011;13496;51.040;13.680;2023-07-02T12:41:09;2.40;;;2.20;;
25637;SDS011;13496;51.040;13.680;2023-07-02T12:46:11;2.85;;;2.30;;
25637;SDS011;13496;51.040;13.680;2023-07-02T12:51:13;10.18;;;2.20;;
25637;SDS011;13496;51.040;13.680;2023-07-02T12:56:15;2.55;;;2.35;;
25637;SDS011;13496;51.040;13.680;2023-07-02T13:01:17;3.67;;;2.30;;
25637;SDS011;13496;51.040;13.680;2023-07-02T13:06:19;3.38;;;2.20;;
25637;SDS011;13496;51.040;13.680;2023-07-02T13:11:20;3.97;;;2.40;;
25637;SDS011;13496;51.040;13.680;2023-07-02T13:16:22;3.70;;;2.42;;
25637;SDS011;13496;51.040;13.680;2023-07-02T13:21:25;4.10;;;2.78;;
25637;SDS011;13496;51.040;13.680;2023-07-02T13:26:27;4.78;;;3.10;;
25637;SDS011;13496;51.040;13.680;2023-07-02T13:31:29;3.13;;;2.83;;
25637;SDS011;13496;51.040;13.680;2023-07-02T13:36:30;4.28;;;3.10;;
25637;SDS011;13496;51.040;13.680;2023-07-02T13:41:32;4.18;;;2.97;;
25637;SDS011;13496;51.040;13.680;2023-07-02T13:46:35;4.00;;;3.05;;
25637;SDS011;13496;51.040;13.680;2023-07-02T13:51:36;5.20;;;3.08;;
25637;SDS011;13496;51.040;13.680;2023-07-02T13:56:38;4.20;;;3.20;;
25637;SDS011;13496;51.040;13.680;2023-07-02T14:01:40;4.47;;;2.88;;
25637;SDS011;13496;51.040;13.680;2023-07-02T14:06:42;3.67;;;2.70;;
25637;SDS011;13496;51.040;13.680;2023-07-02T14:11:44;3.83;;;2.60;;
25637;SDS011;13496;51.040;13.680;2023-07-02T14:16:46;6.00;;;3.17;;
25637;SDS011;13496;51.040;13.680;2023-07-02T14:21:47;3.03;;;2.83;;
25637;SDS011;13496;51.040;13.680;2023-07-02T14:26:50;3.05;;;2.72;;
25637;SDS011;13496;51.040;13.680;2023-07-02T14:31:52;3.13;;;2.90;;
25637;SDS011;13496;51.040;13.680;2023-07-02T14:36:53;8.18;;;3.35;;
25637;SDS011;13496;51.040;13.680;2023-07-02T14:41:56;4.75;;;3.40;;
25637;SDS011;13496;51.040;13.680;2023-07-02T14:46:58;3.38;;;2.95;;
25637;SDS011;13496;51.040;13.680;2023-07-02T14:52:00;4.82;;;3.20;;
25637;SDS011;13496;51.040;13.680;2023-07-02T14:57:01;4.15;;;3.60;;
25637;SDS011;13496;51.040;13.680;2023-07-02T15:02:03;5.28;;;4.03;;
25637;SDS011;13496;51.040;13.680;2023-07-02T15:07:05;5.35;;;3.80;;
25637;SDS011;13496;51.040;13.680;2023-07-02T15:12:07;6.60;;;4.35;;
25637;SDS011;13496;51.040;13.680;2023-07-02T15:17:08;8.15;;;4.20;;
25637;SDS011;13496;51.040;13.680;2023-07-02T15:22:10;6.07;;;4.60;;
25637;SDS011;13496;51.040;13.680;2023-07-02T15:27:12;6.97;;;5.00;;
25637;SDS011;13496;51.040;13.680;2023-07-02T15:32:13;6.40;;;5.20;;
25637;SDS011;13496;51.040;13.680;2023-07-02T15:37:15;5.75;;;4.75;;
25637;SDS011;13496;51.040;13.680;2023-07-02T15:42:18;8.18;;;5.60;;
25637;SDS011;13496;51.040;13.680;2023-07-02T15:47:19;6.30;;;4.95;;
25637;SDS011;13496;51.040;13.680;2023-07-02T15:52:21;6.38;;;5.20;;
25637;SDS011;13496;51.040;13.680;2023-07-02T15:57:23;6.93;;;5.65;;
25637;SDS011;13496;51.040;13.680;2023-07-02T16:02:24;7.30;;;5.55;;
25637;SDS011;13496;51.040;13.680;2023-07-02T16:07:26;7.25;;;5.90;;
25637;SDS011;13496;51.040;13.680;2023-07-02T16:12:28;7.60;;;6.20;;
25637;SDS011;13496;51.040;13.680;2023-07-02T16:17:30;6.40;;;5.40;;
25637;SDS011;13496;51.040;13.680;2023-07-02T16:22:31;8.02;;;6.82;;
25637;SDS011;13496;51.040;13.680;2023-07-02T16:27:33;9.57;;;6.40;;
25637;SDS011;13496;51.040;13.680;2023-07-02T16:32:36;8.75;;;6.90;;
25637;SDS011;13496;51.040;13.680;2023-07-02T16:37:38;8.77;;;6.97;;
25637;SDS011;13496;51.040;13.680;2023-07-02T16:42:39;10.23;;;6.57;;
25637;SDS011;13496;51.040;13.680;2023-07-02T16:47:41;7.50;;;6.22;;
25637;SDS011;13496;51.040;13.680;2023-07-02T16:52:43;7.57;;;6.57;;
25637;SDS011;13496;51.040;13.680;2023-07-02T16:57:45;7.95;;;6.75;;
25637;SDS011;13496;51.040;13.680;2023-07-02T17:02:46;8.48;;;7.18;;
25637;SDS011;13496;51.040;13.680;2023-07-02T17:07:48;10.68;;;7.10;;
25637;SDS011;13496;51.040;13.680;2023-07-02T17:12:50;9.70;;;7.70;;
25637;SDS011;13496;51.040;13.680;2023-07-02T17:17:52;10.00;;;7.40;;
25637;SDS011;13496;51.040;13.680;2023-07-02T17:22:54;10.07;;;6.95;;
25637;SDS011;13496;51.040;13.680;2023-07-02T17:27:56;11.02;;;6.82;;
25637;SDS011;13496;51.040;13.680;2023-07-02T17:32:58;11.18;;;7.93;;
25637;SDS011;13496;51.040;13.680;2023-07-02T17:38:01;10.35;;;7.85;;
25637;SDS011;13496;51.040;13.680;2023-07-02T17:43:02;11.90;;;8.23;;
25637;SDS011;13496;51.040;13.680;2023-07-02T17:48:06;11.98;;;7.93;;
25637;SDS011;13496;51.040;13.680;2023-07-02T17:53:07;11.00;;;8.15;;
25637;SDS011;13496;51.040;13.680;2023-07-02T17:58:09;12.32;;;8.30;;
25637;SDS011;13496;51.040;13.680;2023-07-02T18:03:11;18.45;;;8.82;;
25637;SDS011;13496;51.040;13.680;2023-07-02T18:08:13;15.65;;;8.50;;
25637;SDS011;13496;51.040;13.680;2023-07-02T18:13:14;29.65;;;10.77;;
25637;SDS011;13496;51.040;13.680;2023-07-02T18:18:17;13.50;;;9.00;;
25637;SDS011;13496;51.040;13.680;2023-07-02T18:23:19;10.30;;;8.20;;
25637;SDS011;13496;51.040;13.680;2023-07-02T18:28:22;12.60;;;8.35;;
25637;SDS011;13496;51.040;13.680;2023-07-02T18:33:24;10.43;;;7.82;;
25637;SDS011;13496;51.040;13.680;2023-07-02T18:38:26;13.82;;;8.48;;
25637;SDS011;13496;51.040;13.680;2023-07-02T18:43:28;11.32;;;8.20;;
25637;SDS011;13496;51.040;13.680;2023-07-02T18:48:31;13.23;;;8.88;;
25637;SDS011;13496;51.040;13.680;2023-07-02T18:53:33;10.18;;;7.80;;
25637;SDS011;13496;51.040;13.680;2023-07-02T18:58:36;11.95;;;8.35;;
25637;SDS011;13496;51.040;13.680;2023-07-02T19:03:37;11.10;;;8.10;;
25637;SDS011;13496;51.040;13.680;2023-07-02T19:08:40;10.50;;;8.02;;
25637;SDS011;13496;51.040;13.680;2023-07-02T19:13:41;9.80;;;8.10;;
25637;SDS011;13496;51.040;13.680;2023-07-02T19:18:43;10.95;;;8.02;;
25637;SDS011;13496;51.040;13.680;2023-07-02T19:23:45;9.25;;;7.90;;
25637;SDS011;13496;51.040;13.680;2023-07-02T19:28:47;12.95;;;8.60;;
25637;SDS011;13496;51.040;13.680;2023-07-02T19:33:48;10.25;;;8.50;;
25637;SDS011;13496;51.040;13.680;2023-07-02T19:38:50;10.35;;;8.10;;
25637;SDS011;13496;51.040;13.680;2023-07-02T19:43:52;10.73;;;8.38;;
25637;SDS011;13496;51.040;13.680;2023-07-02T19:48:55;13.88;;;8.95;;
25637;SDS011;13496;51.040;13.680;2023-07-02T19:53:57;10.02;;;8.57;;
25637;SDS011;13496;51.040;13.680;2023-07-02T19:59:01;9.88;;;8.45;;
25637;SDS011;13496;51.040;13.680;2023-07-02T20:04:03;11.90;;;8.30;;
25637;SDS011;13496;51.040;13.680;2023-07-02T20:09:04;10.43;;;8.88;;
25637;SDS011;13496;51.040;13.680;2023-07-02T20:14:06;10.30;;;8.30;;
25637;SDS011;13496;51.040;13.680;2023-07-02T20:19:08;13.30;;;9.07;;
25637;SDS011;13496;51.040;13.680;2023-07-02T20:24:09;11.15;;;8.52;;
25637;SDS011;13496;51.040;13.680;2023-07-02T20:29:11;12.15;;;9.00;;
25637;SDS011;13496;51.040;13.680;2023-07-02T20:34:14;9.85;;;8.57;;
25637;SDS011;13496;51.040;13.680;2023-07-02T20:39:16;10.23;;;8.38;;
25637;SDS011;13496;51.040;13.680;2023-07-02T20:44:18;11.77;;;8.73;;
25637;SDS011;13496;51.040;13.680;2023-07-02T20:49:20;10.15;;;9.00;;
25637;SDS011;13496;51.040;13.680;2023-07-02T20:54:22;10.93;;;9.02;;
25637;SDS011;13496;51.040;13.680;2023-07-02T20:59:24;10.45;;;8.65;;
25637;SDS011;13496;51.040;13.680;2023-07-02T21:04:25;9.77;;;8.77;;
25637;SDS011;13496;51.040;13.680;2023-07-02T21:09:27;10.30;;;8.38;;
25637;SDS011;13496;51.040;13.680;2023-07-02T21:14:30;9.98;;;8.52;;
25637;SDS011;13496;51.040;13.680;2023-07-02T21:19:32;11.23;;;8.90;;
25637;SDS011;13496;51.040;13.680;2023-07-02T21:24:34;10.05;;;8.13;;
25637;SDS011;13496;51.040;13.680;2023-07-02T21:29:35;11.27;;;8.10;;
25637;SDS011;13496;51.040;13.680;2023-07-02T21:34:39;11.85;;;8.32;;
25637;SDS011;13496;51.040;13.680;2023-07-02T21:39:43;14.68;;;8.63;;
25637;SDS011;13496;51.040;13.680;2023-07-02T21:44:45;10.30;;;8.60;;
25637;SDS011;13496;51.040;13.680;2023-07-02T21:49:47;12.00;;;8.73;;
25637;SDS011;13496;51.040;13.680;2023-07-02T21:54:48;12.50;;;9.18;;
25637;SDS011;13496;51.040;13.680;2023-07-02T21:59:50;10.73;;;8.73;;
25637;SDS011;13496;51.040;13.680;2023-07-02T22:04:52;11.90;;;9.20;;
25637;SDS011;13496;51.040;13.680;2023-07-02T22:09:53;12.93;;;9.25;;
25637;SDS011;13496;51.040;13.680;2023-07-02T22:14:55;11.00;;;9.20;;
25637;SDS011;13496;51.040;13.680;2023-07-02T22:19:57;11.13;;;9.15;;
25637;SDS011;13496;51.040;13.680;2023-07-02T22:25:01;12.00;;;9.13;;
25637;SDS011;13496;51.040;13.680;2023-07-02T22:30:06;13.23;;;9.07;;
25637;SDS011;13496;51.040;13.680;2023-07-02T22:35:10;13.15;;;9.50;;
25637;SDS011;13496;51.040;13.680;2023-07-02T22:40:12;11.07;;;8.30;;
25637;SDS011;13496;51.040;13.680;2023-07-02T22:45:16;11.18;;;8.60;;
25637;SDS011;13496;51.040;13.680;2023-07-02T22:50:18;10.57;;;9.05;;
25637;SDS011;13496;51.040;13.680;2023-07-02T22:55:20;9.95;;;8.85;;
25637;SDS011;13496;51.040;13.680;2023-07-02T23:00:22;9.93;;;8.45;;
25637;SDS011;13496;51.040;13.680;2023-07-02T23:05:23;10.93;;;8.65;;
25637;SDS011;13496;51.040;13.680;2023-07-02T23:10:25;11.88;;;9.35;;
25637;SDS011;13496;51.040;13.680;2023-07-02T23:15:27;11.43;;;9.30;;
25637;SDS011;13496;51.040;13.680;2023-07-02T23:20:28;11.05;;;9.23;;
25637;SDS011;13496;51.040;13.680;2023-07-02T23:30:38;12.10;;;9.30;;
25637;SDS011;13496;51.040;13.680;2023-07-02T23:35:39;13.30;;;10.18;;
25637;SDS011;13496;51.040;13.680;2023-07-02T23:40:42;10.10;;;8.70;;
25637;SDS011;13496;51.040;13.680;2023-07-02T23:45:45;10.90;;;9.38;;
25637;SDS011;13496;51.040;13.680;2023-07-02T23:50:46;11.50;;;9.27;;
25637;SDS011;13496;51.040;13.680;2023-07-02T23:55:48;11.45;;;9.30;;
